Terminal Aerodrome Forecast
Issued by NWS Burlington, VT

Home | Current Version | Previous Version | Text Only | Print | Product List | Glossary On
Versions: 1 2 3 4 5 6 7 8 9 10 11 12 13 14 15
000
FTUS41 KBTV 101721
TAFBTV
TAF
KBTV 101721Z 1018/1118 32006KT P6SM OVC050
      TEMPO 1019/1022 30010G15KT 3SM -SHSN OVC025
     FM110700 VRB03KT P6SM SCT090=

USA.gov is the U.S. government's official web portal to all federal, state and local government web resources and services.